Time;durP1;ratioP1;P1;durP2;ratioP2;P2;SDS_P1;SDS_P2;PMS_P1;PMS_P2;Temp;Humidity;BMP_temperature;BMP_pressure;BME280_temperature;BME280_humidity;BME280_pressure;Samples;Min_cycle;Max_cycle;Signal;HPM_P1;HPM_P2
2023/05/12 00:01:06;;;;;;;9.50;4.70;;;15.60;95.20;;;;;;5133379;28;20020;-78
2023/05/12 00:03:32;;;;;;;7.65;4.50;;;15.60;95.20;;;;;;5134278;28;20032;-78
2023/05/12 00:06:02;;;;;;;7.32;4.40;;;15.60;95.10;;;;;;5133293;28;20038;-78
2023/05/12 00:08:28;;;;;;;8.02;4.85;;;15.60;95.10;;;;;;5134141;28;20044;-78
2023/05/12 00:10:53;;;;;;;6.95;4.40;;;15.60;95.20;;;;;;5134275;28;20046;-78
2023/05/12 00:13:22;;;;;;;7.00;4.47;;;15.60;95.20;;;;;;5134212;28;20028;-78
2023/05/12 00:15:48;;;;;;;8.25;4.32;;;15.60;95.10;;;;;;5133323;28;20020;-78
2023/05/12 00:18:14;;;;;;;12.27;5.35;;;15.50;95.10;;;;;;5134144;28;20057;-78
2023/05/12 00:20:39;;;;;;;7.53;4.55;;;15.50;95.10;;;;;;5134156;28;20441;-78
2023/05/12 00:23:05;;;;;;;9.70;4.72;;;15.50;95.20;;;;;;5133062;28;20023;-78
2023/05/12 00:25:31;;;;;;;8.73;5.05;;;15.50;95.20;;;;;;5133998;28;20039;-78
2023/05/12 00:27:56;;;;;;;8.57;4.25;;;15.50;95.10;;;;;;5133106;28;20028;-78
2023/05/12 00:30:22;;;;;;;8.10;5.40;;;15.50;95.20;;;;;;5132944;28;20024;-78
2023/05/12 00:32:48;;;;;;;9.60;5.63;;;15.50;95.20;;;;;;5133974;28;20083;-78
2023/05/12 00:35:14;;;;;;;8.80;5.20;;;15.50;95.20;;;;;;5115985;28;20020;-78
2023/05/12 00:37:41;;;;;;;8.98;5.40;;;15.40;95.10;;;;;;5133915;28;20024;-78
2023/05/12 00:40:07;;;;;;;8.45;5.38;;;15.40;95.10;;;;;;5132874;28;20042;-78
2023/05/12 00:42:34;;;;;;;9.93;5.80;;;15.40;95.20;;;;;;5133008;28;20019;-78
2023/05/12 00:44:59;;;;;;;11.90;6.00;;;15.40;95.10;;;;;;5134968;28;20023;-78
2023/05/12 00:47:26;;;;;;;9.40;5.63;;;15.30;95.20;;;;;;5120077;28;20034;-78
2023/05/12 00:49:52;;;;;;;10.55;5.60;;;15.30;95.20;;;;;;5138103;28;20016;-78
2023/05/12 00:52:18;;;;;;;10.60;5.70;;;15.30;95.20;;;;;;5137077;28;20019;-78
2023/05/12 00:54:45;;;;;;;9.85;5.85;;;15.30;95.20;;;;;;5120049;28;20050;-78
2023/05/12 00:57:11;;;;;;;10.25;5.30;;;15.30;95.20;;;;;;5137939;28;20050;-78
2023/05/12 00:59:37;;;;;;;9.38;5.32;;;15.30;95.20;;;;;;5137912;28;20024;-78
2023/05/12 01:02:03;;;;;;;9.35;4.90;;;15.20;95.20;;;;;;5136874;28;20046;-78
2023/05/12 01:04:29;;;;;;;8.25;4.88;;;15.20;95.30;;;;;;5136748;28;20030;-78
2023/05/12 01:06:59;;;;;;;9.95;4.53;;;15.20;95.30;;;;;;5119755;28;20024;-79
2023/05/12 01:09:25;;;;;;;10.65;5.30;;;15.20;95.70;;;;;;5137785;28;20031;-78
2023/05/12 01:11:51;;;;;;;8.00;4.93;;;15.10;95.30;;;;;;5136775;28;20090;-78
2023/05/12 01:14:16;;;;;;;8.63;4.90;;;15.20;95.40;;;;;;5137793;28;20062;-78
2023/05/12 01:16:53;;;;;;;7.45;4.28;;;15.20;95.40;;;;;;5136728;28;20038;-78
2023/05/12 01:19:45;;;;;;;10.45;5.18;;;15.20;95.40;;;;;;5137576;28;20049;-78
2023/05/12 01:22:11;;;;;;;8.47;5.53;;;15.20;95.30;;;;;;5137500;28;20028;-78
2023/05/12 01:24:57;;;;;;;7.93;4.30;;;15.10;95.40;;;;;;5137343;28;20281;-78
2023/05/12 01:27:26;;;;;;;8.68;4.60;;;15.10;95.40;;;;;;5136360;28;20026;-78
2023/05/12 01:29:53;;;;;;;8.30;4.78;;;15.10;95.40;;;;;;5119501;28;20032;-78
2023/05/12 01:32:21;;;;;;;9.13;4.70;;;15.10;95.40;;;;;;5135973;28;20027;-78
2023/05/12 01:34:46;;;;;;;7.88;4.50;;;15.00;95.30;;;;;;5137163;28;20030;-78
2023/05/12 01:37:12;;;;;;;7.30;4.32;;;15.00;95.30;;;;;;5119220;28;20024;-78
2023/05/12 01:39:37;;;;;;;7.03;4.53;;;15.00;95.30;;;;;;5136116;28;20034;-78
2023/05/12 01:42:04;;;;;;;7.18;4.75;;;15.00;95.30;;;;;;5119076;28;20032;-78
2023/05/12 01:44:29;;;;;;;8.27;4.82;;;15.00;95.30;;;;;;5118957;28;20031;-78
2023/05/12 01:46:55;;;;;;;7.95;4.25;;;15.00;95.30;;;;;;5136991;28;20047;-78
2023/05/12 01:49:21;;;;;;;7.88;4.30;;;14.90;95.30;;;;;;5136984;28;20036;-78
2023/05/12 01:51:46;;;;;;;6.93;4.15;;;14.90;95.30;;;;;;5137060;28;20023;-78
2023/05/12 01:54:12;;;;;;;7.28;4.20;;;14.90;95.40;;;;;;5136871;28;20016;-78
2023/05/12 01:56:38;;;;;;;6.80;4.28;;;14.90;95.40;;;;;;5136759;28;20028;-78
2023/05/12 01:59:03;;;;;;;6.90;4.10;;;14.90;95.50;;;;;;5136796;28;20034;-78
2023/05/12 02:01:31;;;;;;;6.43;3.75;;;14.90;95.50;;;;;;5118738;28;20023;-78
2023/05/12 02:03:56;;;;;;;5.50;3.50;;;14.90;95.40;;;;;;5135762;28;20030;-78
2023/05/12 02:06:22;;;;;;;4.70;3.22;;;14.90;95.50;;;;;;5135602;28;20012;-77
2023/05/12 02:08:48;;;;;;;6.53;3.70;;;14.90;95.60;;;;;;5118433;28;20036;-78
2023/05/12 02:11:14;;;;;;;4.47;2.67;;;14.90;95.50;;;;;;5135654;28;20019;-78
2023/05/12 02:13:41;;;;;;;4.65;2.78;;;14.90;95.50;;;;;;5135530;28;20155;-78
2023/05/12 02:16:06;;;;;;;5.15;2.85;;;14.80;95.50;;;;;;5135412;28;20020;-78
2023/05/12 02:18:32;;;;;;;5.15;2.70;;;14.80;95.60;;;;;;5118534;28;20020;-78
2023/05/12 02:20:58;;;;;;;5.57;2.60;;;14.80;95.60;;;;;;5136354;28;20115;-78
2023/05/12 02:23:23;;;;;;;4.15;2.22;;;14.80;95.60;;;;;;5135319;28;20031;-78
2023/05/12 02:25:49;;;;;;;6.07;2.55;;;14.80;95.60;;;;;;5136297;28;20036;-78
2023/05/12 02:28:15;;;;;;;3.70;2.13;;;14.80;95.70;;;;;;5135191;28;20030;-78
2023/05/12 02:30:45;;;;;;;5.18;2.58;;;14.80;95.60;;;;;;5135243;28;20023;-78
2023/05/12 02:33:11;;;;;;;4.00;2.45;;;14.80;95.70;;;;;;5136056;28;20076;-78
2023/05/12 02:35:37;;;;;;;4.50;2.40;;;14.70;95.70;;;;;;5136077;28;20028;-78
2023/05/12 02:38:03;;;;;;;4.45;2.42;;;14.70;95.80;;;;;;5135110;28;20024;-78
2023/05/12 02:40:29;;;;;;;5.93;2.28;;;14.70;95.80;;;;;;5134986;28;20024;-78
2023/05/12 02:42:55;;;;;;;3.60;2.10;;;14.70;95.90;;;;;;5134871;28;20058;-78
2023/05/12 02:45:21;;;;;;;5.60;2.78;;;14.70;95.80;;;;;;5134929;28;20043;-78
2023/05/12 02:47:47;;;;;;;4.88;2.47;;;14.80;95.90;;;;;;5134774;28;20043;-78
2023/05/12 02:50:13;;;;;;;3.53;1.83;;;14.70;96.00;;;;;;5135810;28;20042;-78
2023/05/12 02:52:38;;;;;;;4.90;2.75;;;14.70;96.00;;;;;;5135756;28;20420;-78
2023/05/12 02:55:04;;;;;;;4.72;2.50;;;14.70;96.10;;;;;;5135668;28;20062;-79
2023/05/12 02:57:32;;;;;;;6.15;2.83;;;14.60;96.10;;;;;;5135661;28;20035;-78
2023/05/12 02:59:59;;;;;;;5.93;2.97;;;14.70;96.20;;;;;;5135745;28;20071;-78
2023/05/12 03:02:25;;;;;;;6.35;2.85;;;14.70;96.20;;;;;;5117576;28;20031;-78
2023/05/12 03:04:50;;;;;;;7.90;3.63;;;14.70;96.30;;;;;;5135441;28;20396;-78
2023/05/12 03:07:16;;;;;;;9.68;4.15;;;14.70;96.30;;;;;;5134710;28;20050;-78
2023/05/12 03:09:41;;;;;;;9.77;4.07;;;14.70;96.30;;;;;;5135587;28;20067;-78
2023/05/12 03:12:07;;;;;;;9.40;3.83;;;14.70;96.40;;;;;;5117276;28;20127;-78
2023/05/12 03:14:33;;;;;;;8.48;4.25;;;14.60;96.40;;;;;;5135421;28;20027;-78
2023/05/12 03:16:59;;;;;;;9.77;4.40;;;14.60;96.50;;;;;;5134364;28;20027;-78
2023/05/12 03:19:26;;;;;;;12.30;4.68;;;14.60;96.60;;;;;;5134139;28;20042;-78
2023/05/12 03:21:52;;;;;;;10.50;5.13;;;14.60;96.70;;;;;;5134264;28;20028;-78
2023/05/12 03:24:18;;;;;;;13.43;5.60;;;14.60;96.70;;;;;;5134128;28;20028;-78
2023/05/12 03:26:44;;;;;;;11.38;5.32;;;14.70;96.80;;;;;;5135117;28;20023;-78
2023/05/12 03:29:09;;;;;;;11.55;6.03;;;14.70;96.80;;;;;;5135010;28;20020;-78
2023/05/12 03:31:35;;;;;;;14.68;6.18;;;14.70;96.90;;;;;;5135010;28;20048;-78
2023/05/12 03:34:01;;;;;;;13.93;6.68;;;14.70;96.90;;;;;;5133898;28;20065;-78
2023/05/12 03:36:26;;;;;;;14.40;6.60;;;14.70;97.00;;;;;;5134906;28;20053;-78
2023/05/12 03:38:52;;;;;;;15.88;7.32;;;14.60;97.00;;;;;;5133922;28;20036;-78
2023/05/12 03:41:18;;;;;;;15.85;7.20;;;14.60;97.00;;;;;;5134939;28;20032;-78
2023/05/12 03:43:43;;;;;;;15.80;7.25;;;14.60;97.10;;;;;;5134685;28;20020;-78
2023/05/12 03:46:09;;;;;;;15.93;7.68;;;14.60;97.20;;;;;;5133802;28;20504;-78
2023/05/12 03:48:34;;;;;;;19.00;8.45;;;14.70;97.20;;;;;;5133573;28;20023;-78
2023/05/12 03:51:00;;;;;;;16.92;7.63;;;14.60;97.20;;;;;;5134751;28;20043;-78
2023/05/12 03:53:26;;;;;;;19.38;7.32;;;14.60;97.30;;;;;;5134610;28;20066;-79
2023/05/12 03:55:51;;;;;;;16.83;8.05;;;14.60;97.40;;;;;;5133748;28;20038;-78
2023/05/12 03:58:17;;;;;;;19.05;8.43;;;14.60;97.40;;;;;;5116516;28;20035;-78
2023/05/12 04:00:43;;;;;;;18.33;7.20;;;14.60;97.40;;;;;;5133482;28;20024;-78
2023/05/12 04:03:08;;;;;;;18.83;8.68;;;14.60;97.50;;;;;;5134380;28;20038;-79
2023/05/12 04:05:35;;;;;;;20.55;7.88;;;14.60;97.80;;;;;;5133308;28;20040;-78
2023/05/12 04:08:00;;;;;;;20.15;8.95;;;14.60;97.50;;;;;;5134147;28;20042;-78
2023/05/12 04:10:26;;;;;;;21.67;9.27;;;14.60;98.00;;;;;;5134272;28;20028;-78
2023/05/12 04:12:52;;;;;;;22.00;9.50;;;14.60;97.60;;;;;;5134280;28;20024;-78
2023/05/12 04:15:17;;;;;;;22.23;9.13;;;14.70;97.60;;;;;;5134378;28;20028;-78
2023/05/12 04:17:43;;;;;;;21.65;9.48;;;14.70;97.70;;;;;;5133215;28;20035;-78
2023/05/12 04:20:09;;;;;;;23.42;9.38;;;14.70;97.70;;;;;;5115238;28;20028;-78
2023/05/12 04:22:35;;;;;;;18.30;8.55;;;14.60;97.70;;;;;;5133041;28;20032;-78
2023/05/12 04:25:00;;;;;;;19.42;9.27;;;14.70;97.70;;;;;;5134043;28;20053;-78
2023/05/12 04:27:26;;;;;;;21.88;9.68;;;14.60;97.80;;;;;;5133126;28;20024;-78
2023/05/12 04:29:52;;;;;;;25.35;10.90;;;14.70;97.80;;;;;;5134023;28;20020;-78
2023/05/12 04:32:17;;;;;;;24.00;10.30;;;14.70;97.90;;;;;;5134156;28;20046;-78
2023/05/12 04:34:43;;;;;;;20.25;10.20;;;14.70;97.90;;;;;;5133878;28;20043;-78
2023/05/12 04:37:08;;;;;;;22.45;9.77;;;14.70;97.90;;;;;;5133906;28;20032;-79
2023/05/12 04:39:34;;;;;;;25.08;10.10;;;14.80;97.90;;;;;;5133933;28;20053;-78
2023/05/12 04:42:01;;;;;;;28.95;12.02;;;14.80;98.00;;;;;;5132974;28;20024;-78
2023/05/12 04:44:26;;;;;;;28.52;11.70;;;14.70;98.00;;;;;;5133849;28;20057;-78
2023/05/12 04:46:55;;;;;;;25.80;11.07;;;14.80;98.00;;;;;;5132948;28;20023;-78
2023/05/12 04:49:21;;;;;;;28.23;11.73;;;14.80;98.10;;;;;;5132852;28;20402;-78
2023/05/12 04:51:46;;;;;;;27.67;12.00;;;14.80;98.10;;;;;;5132881;28;20024;-78
2023/05/12 04:54:12;;;;;;;26.55;11.95;;;14.80;98.10;;;;;;5133851;28;20119;-78
2023/05/12 04:56:38;;;;;;;24.55;10.73;;;14.80;98.10;;;;;;5132748;28;20051;-78
2023/05/12 04:59:04;;;;;;;23.40;11.20;;;14.80;98.20;;;;;;5133733;28;20079;-78
2023/05/12 05:01:29;;;;;;;24.90;11.15;;;14.80;98.10;;;;;;5133771;28;20053;-78
2023/05/12 05:03:55;;;;;;;24.92;10.93;;;14.80;98.20;;;;;;5133621;28;20030;-78
2023/05/12 05:06:20;;;;;;;27.38;12.27;;;14.80;98.20;;;;;;5132722;28;20482;-78
2023/05/12 05:08:46;;;;;;;29.60;12.60;;;14.90;98.20;;;;;;5115456;28;20051;-78
2023/05/12 05:11:12;;;;;;;26.05;12.25;;;14.90;98.20;;;;;;5132770;28;20054;-78
2023/05/12 05:13:37;;;;;;;27.92;12.70;;;14.90;98.20;;;;;;5115692;28;20119;-79
2023/05/12 05:16:03;;;;;;;26.90;12.35;;;14.80;98.30;;;;;;5133542;28;20083;-79
2023/05/12 05:18:29;;;;;;;29.52;12.60;;;14.90;98.40;;;;;;5115592;28;20084;-79
2023/05/12 05:20:55;;;;;;;28.92;12.32;;;14.90;98.50;;;;;;5132523;28;20023;-78
2023/05/12 05:23:20;;;;;;;29.73;13.10;;;14.90;98.50;;;;;;5133648;28;20027;-78
2023/05/12 05:25:46;;;;;;;30.60;12.40;;;14.90;98.50;;;;;;5133422;28;20379;-78
2023/05/12 05:28:11;;;;;;;24.90;11.68;;;14.90;98.60;;;;;;5115554;28;20016;-78
2023/05/12 05:30:37;;;;;;;26.88;11.98;;;14.90;98.70;;;;;;5133928;28;20031;-78
2023/05/12 05:33:03;;;;;;;28.60;12.98;;;14.90;98.70;;;;;;5136328;28;20020;-79
2023/05/12 05:35:30;;;;;;;28.55;12.98;;;15.00;98.70;;;;;;5137163;28;20032;-78
2023/05/12 05:37:56;;;;;;;26.02;12.13;;;14.90;98.70;;;;;;5137236;28;20028;-79
2023/05/12 05:40:22;;;;;;;26.95;12.00;;;15.00;98.80;;;;;;5119075;28;20042;-79
2023/05/12 05:42:47;;;;;;;24.48;11.85;;;15.00;98.70;;;;;;5119200;28;20096;-79
2023/05/12 05:45:13;;;;;;;28.65;12.52;;;15.00;98.80;;;;;;5137018;28;20076;-79
2023/05/12 05:47:39;;;;;;;21.52;9.90;;;15.00;98.80;;;;;;5136144;28;20024;-79
2023/05/12 05:50:05;;;;;;;23.25;11.50;;;15.00;98.90;;;;;;5136966;28;20031;-79
2023/05/12 05:52:31;;;;;;;26.80;12.25;;;15.10;98.90;;;;;;5135906;28;20040;-78
2023/05/12 05:54:57;;;;;;;24.95;11.20;;;15.10;99.00;;;;;;5136040;28;20031;-79
2023/05/12 05:57:22;;;;;;;24.67;11.90;;;15.10;98.90;;;;;;5118787;28;20035;-78
2023/05/12 05:59:48;;;;;;;23.85;11.00;;;15.10;98.80;;;;;;5136743;28;20062;-78
2023/05/12 06:02:14;;;;;;;25.98;12.05;;;15.20;98.90;;;;;;5136753;28;20039;-79
2023/05/12 06:04:39;;;;;;;23.98;12.07;;;15.20;98.90;;;;;;5136666;28;20023;-78
2023/05/12 06:07:05;;;;;;;22.58;10.55;;;15.20;98.90;;;;;;5135581;28;20031;-78
2023/05/12 06:09:31;;;;;;;24.02;11.52;;;15.20;98.80;;;;;;5118751;28;20027;-78
2023/05/12 06:11:56;;;;;;;27.15;12.20;;;15.30;98.90;;;;;;5118474;28;20027;-79
2023/05/12 06:14:22;;;;;;;24.17;11.93;;;15.30;99.00;;;;;;5135658;28;20035;-79
2023/05/12 06:16:48;;;;;;;22.73;11.18;;;15.30;99.10;;;;;;5135375;28;20034;-79
2023/05/12 06:19:14;;;;;;;24.20;11.30;;;15.30;99.00;;;;;;5136377;28;20045;-80
2023/05/12 06:21:40;;;;;;;25.00;11.35;;;15.40;99.00;;;;;;5136316;28;20020;-80
2023/05/12 06:24:06;;;;;;;21.23;11.77;;;15.40;98.90;;;;;;5135208;28;20032;-79
2023/05/12 06:26:31;;;;;;;23.48;11.25;;;15.40;99.20;;;;;;5136325;28;20020;-80
2023/05/12 06:28:57;;;;;;;26.13;12.13;;;15.40;99.10;;;;;;5135313;28;20061;-79
2023/05/12 06:31:22;;;;;;;22.90;11.73;;;15.40;99.00;;;;;;5136105;28;20019;-79
2023/05/12 06:33:48;;;;;;;21.95;11.57;;;15.40;98.70;;;;;;5135139;28;20030;-79
2023/05/12 06:36:14;;;;;;;21.25;11.35;;;15.50;98.80;;;;;;5136101;28;20027;-79
2023/05/12 06:38:40;;;;;;;21.83;10.63;;;15.50;98.90;;;;;;5135037;28;20417;-79
2023/05/12 06:41:05;;;;;;;21.90;10.88;;;15.40;99.00;;;;;;5134925;28;20028;-79
2023/05/12 06:43:31;;;;;;;23.55;10.57;;;15.50;98.80;;;;;;5117101;28;20028;-79
2023/05/12 06:45:57;;;;;;;22.67;11.38;;;15.50;98.90;;;;;;5134804;28;20020;-79
2023/05/12 06:48:23;;;;;;;23.00;10.77;;;15.50;99.00;;;;;;5117949;28;20035;-79
2023/05/12 06:50:48;;;;;;;19.40;10.35;;;15.60;98.80;;;;;;5117818;28;20074;-79
2023/05/12 06:53:14;;;;;;;17.88;10.35;;;15.60;98.70;;;;;;5135799;28;20045;-79
2023/05/12 06:55:42;;;;;;;20.40;10.73;;;15.60;98.80;;;;;;5117568;28;20034;-79
2023/05/12 06:58:07;;;;;;;16.65;9.35;;;15.70;98.60;;;;;;5135653;28;20020;-79
2023/05/12 07:00:34;;;;;;;17.00;9.27;;;15.70;98.20;;;;;;5135633;28;20020;-79
2023/05/12 07:02:59;;;;;;;15.70;8.40;;;15.70;98.30;;;;;;5134465;28;20031;-79
2023/05/12 07:05:25;;;;;;;13.68;8.30;;;15.70;98.40;;;;;;5135557;28;20024;-79
2023/05/12 07:07:51;;;;;;;12.90;7.28;;;15.70;98.10;;;;;;5135259;28;20166;-79
2023/05/12 07:10:19;;;;;;;14.25;7.45;;;15.80;98.00;;;;;;5134398;28;20126;-79
2023/05/12 07:12:45;;;;;;;12.77;7.57;;;15.80;98.00;;;;;;5134319;28;20034;-79
2023/05/12 07:15:11;;;;;;;12.90;7.28;;;15.80;97.30;;;;;;5135335;28;20045;-79
2023/05/12 07:17:36;;;;;;;12.13;6.57;;;15.80;96.90;;;;;;5117312;28;20045;-79
2023/05/12 07:20:03;;;;;;;11.98;6.40;;;15.90;96.70;;;;;;5134309;28;20031;-79
2023/05/12 07:22:31;;;;;;;12.88;6.72;;;15.90;97.10;;;;;;5117352;28;20106;-79
2023/05/12 07:24:56;;;;;;;11.35;6.22;;;16.00;97.20;;;;;;5135054;28;20359;-80
2023/05/12 07:27:22;;;;;;;9.20;5.80;;;16.10;97.10;;;;;;5117176;28;20103;-81
2023/05/12 07:29:47;;;;;;;8.07;5.40;;;16.20;96.80;;;;;;5134093;28;20024;-79
2023/05/12 07:32:13;;;;;;;9.15;5.30;;;16.30;96.00;;;;;;5117031;28;20027;-79
2023/05/12 07:34:39;;;;;;;8.48;5.13;;;16.30;95.50;;;;;;5133882;28;20034;-79
2023/05/12 07:37:05;;;;;;;6.05;4.57;;;16.40;94.10;;;;;;5134921;28;20050;-78
2023/05/12 07:39:31;;;;;;;6.00;4.32;;;16.50;94.10;;;;;;5134822;28;20042;-78
2023/05/12 07:41:57;;;;;;;6.35;4.00;;;16.50;94.20;;;;;;5134807;28;20031;-79
2023/05/12 07:44:23;;;;;;;6.72;4.38;;;16.50;94.00;;;;;;5116540;28;20176;-79
2023/05/12 07:46:48;;;;;;;8.32;4.88;;;16.50;94.20;;;;;;5134709;28;20016;-79
2023/05/12 07:49:17;;;;;;;7.18;4.57;;;16.60;94.20;;;;;;5134726;28;20020;-79
2023/05/12 07:51:43;;;;;;;7.13;4.70;;;16.70;94.50;;;;;;5134639;28;20047;-79
2023/05/12 07:54:08;;;;;;;7.72;4.25;;;16.80;94.00;;;;;;5133515;28;20032;-79
2023/05/12 07:56:34;;;;;;;5.68;3.83;;;16.90;94.20;;;;;;5134583;28;20032;-79
2023/05/12 07:59:00;;;;;;;5.50;3.60;;;17.00;93.30;;;;;;5134473;28;20054;-79
2023/05/12 08:01:25;;;;;;;6.22;3.80;;;16.90;92.70;;;;;;5134489;28;20023;-79
2023/05/12 08:03:51;;;;;;;5.40;3.85;;;17.00;92.60;;;;;;5133437;28;20020;-79
2023/05/12 08:06:17;;;;;;;6.07;4.07;;;17.10;92.80;;;;;;5133401;28;20050;-79
2023/05/12 08:08:43;;;;;;;6.93;4.15;;;17.10;93.50;;;;;;5134227;28;20039;-79
2023/05/12 08:11:10;;;;;;;7.68;4.20;;;17.10;93.30;;;;;;5134263;28;20024;-79
2023/05/12 08:13:38;;;;;;;7.82;4.72;;;17.10;92.30;;;;;;5133257;28;20028;-79
2023/05/12 08:16:05;;;;;;;6.95;4.82;;;17.10;92.70;;;;;;5134263;28;20016;-79
2023/05/12 08:18:30;;;;;;;7.07;4.85;;;17.10;93.20;;;;;;5133364;28;20019;-79
2023/05/12 08:20:56;;;;;;;7.15;4.38;;;17.10;92.60;;;;;;5116122;28;20471;-79
2023/05/12 08:23:22;;;;;;;6.78;4.55;;;17.10;92.70;;;;;;5116229;28;20118;-80
2023/05/12 08:25:47;;;;;;;6.45;4.60;;;17.00;92.90;;;;;;5132922;28;20035;-79
2023/05/12 08:28:13;;;;;;;6.10;4.03;;;17.10;93.20;;;;;;5133122;28;20031;-79
2023/05/12 08:30:43;;;;;;;5.40;3.72;;;17.10;92.60;;;;;;5133010;28;20022;-80
2023/05/12 08:33:09;;;;;;;6.28;3.75;;;17.20;92.70;;;;;;5134107;28;20039;-80
2023/05/12 08:35:35;;;;;;;5.88;3.97;;;17.30;91.80;;;;;;5134000;28;20087;-79
2023/05/12 08:38:01;;;;;;;6.00;3.90;;;17.30;92.10;;;;;;5133062;28;20035;-80
2023/05/12 08:40:29;;;;;;;5.72;3.70;;;17.30;92.50;;;;;;5132939;28;20027;-80
2023/05/12 08:43:17;;;;;;;6.20;3.83;;;17.40;92.00;;;;;;5133937;28;20028;-79
2023/05/12 08:45:44;;;;;;;6.07;3.92;;;17.40;92.40;;;;;;5133764;28;20027;-80
2023/05/12 08:48:12;;;;;;;6.20;4.10;;;17.40;92.70;;;;;;5132943;28;20034;-80
2023/05/12 08:50:39;;;;;;;5.97;4.00;;;17.40;92.80;;;;;;5116010;28;20051;-80
2023/05/12 08:53:09;;;;;;;6.40;4.28;;;17.50;92.10;;;;;;5133760;28;20024;-80
2023/05/12 08:55:35;;;;;;;6.75;4.80;;;17.50;92.40;;;;;;5133836;28;20020;-80
2023/05/12 08:58:02;;;;;;;6.35;4.55;;;17.50;92.70;;;;;;5132839;28;20031;-80
2023/05/12 09:00:29;;;;;;;6.57;4.00;;;17.60;92.90;;;;;;5133732;28;20023;-80
2023/05/12 09:02:58;;;;;;;6.35;4.22;;;17.60;92.10;;;;;;5133722;28;20027;-80
2023/05/12 09:05:25;;;;;;;6.28;3.90;;;17.60;91.90;;;;;;5134711;28;20028;-80
2023/05/12 09:07:54;;;;;;;6.22;4.47;;;17.60;92.50;;;;;;5136582;28;20036;-80
2023/05/12 09:10:21;;;;;;;5.82;4.38;;;17.60;92.60;;;;;;5137788;28;20027;-80
2023/05/12 09:12:48;;;;;;;5.57;3.80;;;17.70;92.10;;;;;;5137712;28;20031;-80
2023/05/12 09:15:19;;;;;;;6.10;3.85;;;17.70;92.20;;;;;;5136681;28;20114;-80
2023/05/12 09:17:45;;;;;;;5.93;3.20;;;17.70;92.40;;;;;;5137720;28;20024;-80
2023/05/12 09:20:12;;;;;;;5.07;3.65;;;17.80;92.50;;;;;;5136778;28;20142;-80
2023/05/12 09:22:38;;;;;;;5.97;3.50;;;17.80;92.30;;;;;;5136452;28;20023;-80
2023/05/12 09:25:17;;;;;;;4.40;3.38;;;17.80;91.80;;;;;;5136665;28;20028;-80
2023/05/12 09:27:46;;;;;;;7.22;3.33;;;17.90;91.00;;;;;;5137417;28;20538;-79
2023/05/12 09:30:12;;;;;;;4.00;3.10;;;17.90;91.20;;;;;;5137385;28;20024;-79
2023/05/12 09:32:37;;;;;;;4.20;3.00;;;17.90;90.60;;;;;;5136393;28;20092;-79
2023/05/12 09:35:10;;;;;;;3.78;3.05;;;17.90;91.00;;;;;;5137362;28;20035;-80
2023/05/12 09:37:36;;;;;;;;;;;18.00;91.00;;;;;;5136651;28;20016;-80
2023/05/12 09:40:04;;;;;;;5.35;3.03;;;17.90;89.90;;;;;;5136162;28;19915;-79
2023/05/12 09:42:31;;;;;;;3.88;2.88;;;17.80;90.50;;;;;;5137187;28;20019;-79
2023/05/12 09:45:03;;;;;;;4.22;2.92;;;17.90;91.00;;;;;;5137214;28;20046;-80
2023/05/12 09:47:38;;;;;;;5.53;3.28;;;17.90;91.10;;;;;;5137055;28;20032;-80
2023/05/12 09:50:05;;;;;;;3.92;2.55;;;18.00;90.70;;;;;;5137034;28;20039;-80
2023/05/12 09:52:36;;;;;;;6.85;2.95;;;18.10;90.70;;;;;;5135887;28;20030;-80
2023/05/12 09:55:07;;;;;;;3.63;2.72;;;18.20;90.80;;;;;;5136977;28;20080;-80
2023/05/12 09:57:38;;;;;;;3.38;2.80;;;18.40;90.00;;;;;;5118861;28;20052;-80
2023/05/12 10:00:06;;;;;;;4.65;3.00;;;18.40;89.80;;;;;;5135880;28;20168;-80
2023/05/12 10:02:33;;;;;;;4.22;3.00;;;18.50;87.20;;;;;;5136773;28;20034;-80
2023/05/12 10:05:05;;;;;;;3.40;2.53;;;18.50;86.90;;;;;;5136685;28;20023;-80
2023/05/12 10:07:31;;;;;;;3.67;2.90;;;18.40;87.50;;;;;;5136530;28;20054;-80
2023/05/12 10:10:01;;;;;;;4.25;2.88;;;18.40;86.00;;;;;;5136667;28;20034;-81
2023/05/12 10:12:27;;;;;;;5.45;3.03;;;18.40;86.80;;;;;;5136589;28;20026;-80
2023/05/12 10:14:55;;;;;;;3.72;2.90;;;18.50;85.10;;;;;;5136633;28;20035;-80
2023/05/12 10:17:21;;;;;;;6.05;3.25;;;18.40;84.80;;;;;;5134327;28;20047;-80
2023/05/12 10:19:48;;;;;;;6.95;2.75;;;18.30;85.50;;;;;;5136436;28;20085;-80
2023/05/12 10:22:16;;;;;;;5.78;3.00;;;18.30;85.20;;;;;;5136346;28;20038;-80
2023/05/12 10:24:42;;;;;;;4.22;2.80;;;18.30;85.00;;;;;;5136232;28;20023;-80
2023/05/12 10:27:10;;;;;;;4.63;3.03;;;18.30;86.10;;;;;;5135257;28;20028;-80
2023/05/12 10:29:37;;;;;;;4.43;2.83;;;18.40;85.50;;;;;;5136218;28;20024;-81
2023/05/12 10:32:03;;;;;;;8.93;2.90;;;18.50;85.70;;;;;;5135346;28;20042;-81
2023/05/12 10:34:33;;;;;;;3.03;2.47;;;18.50;85.30;;;;;;5118210;28;20028;-81
2023/05/12 10:36:59;;;;;;;5.45;2.70;;;18.50;85.00;;;;;;5135357;28;20028;-80
2023/05/12 10:39:29;;;;;;;3.65;2.75;;;18.50;83.20;;;;;;5135031;28;20085;-81
2023/05/12 10:42:25;;;;;;;4.45;3.00;;;18.40;85.20;;;;;;5136023;28;20031;-81
2023/05/12 10:44:55;;;;;;;4.75;2.95;;;18.40;83.60;;;;;;5134329;28;20096;-81
2023/05/12 10:47:39;;;;;;;4.78;2.97;;;18.40;84.30;;;;;;5135915;28;20020;-81
2023/05/12 10:50:05;;;;;;;4.45;3.05;;;18.50;84.70;;;;;;5117861;28;20032;-81
2023/05/12 10:52:30;;;;;;;5.88;3.00;;;18.60;85.20;;;;;;5135818;28;20063;-81
2023/05/12 10:55:01;;;;;;;3.03;2.42;;;18.70;86.20;;;;;;5135068;28;20028;-81
2023/05/12 10:57:27;;;;;;;4.55;3.15;;;18.70;77.70;;;;;;5134784;28;20032;-81
2023/05/12 10:59:57;;;;;;;4.30;2.60;;;18.60;81.20;;;;;;5135704;28;20023;-81
2023/05/12 11:02:29;;;;;;;4.32;2.83;;;18.70;81.70;;;;;;5135618;28;20034;-81
2023/05/12 11:05:03;;;;;;;5.35;3.33;;;18.70;82.10;;;;;;5118405;28;20047;-82
2023/05/12 11:07:31;;;;;;;3.58;2.75;;;18.80;81.90;;;;;;5135486;28;20077;-81
2023/05/12 11:09:59;;;;;;;3.08;2.58;;;19.00;81.90;;;;;;5135504;28;20065;-84
2023/05/12 11:12:26;;;;;;;3.83;2.95;;;19.10;79.00;;;;;;5134450;28;20034;-82
2023/05/12 11:14:53;;;;;;;4.13;2.88;;;19.30;80.10;;;;;;5135359;28;20023;-82
2023/05/12 11:17:18;;;;;;;4.25;3.10;;;19.40;80.00;;;;;;5134383;28;20038;-82
2023/05/12 11:19:49;;;;;;;4.35;3.38;;;19.40;76.30;;;;;;5134314;28;20471;-82
2023/05/12 11:22:22;;;;;;;3.95;2.83;;;19.50;81.10;;;;;;5134256;28;20429;-82
2023/05/12 11:24:49;;;;;;;3.83;3.17;;;19.60;78.70;;;;;;5135134;28;20023;-82
2023/05/12 11:27:17;;;;;;;3.88;3.00;;;19.60;78.10;;;;;;5135104;28;20031;-81
2023/05/12 11:29:45;;;;;;;4.55;3.15;;;19.70;77.70;;;;;;5134643;28;20026;-81
2023/05/12 11:32:11;;;;;;;4.97;3.30;;;19.90;79.60;;;;;;5135183;28;20050;-82
2023/05/12 11:34:37;;;;;;;3.72;3.20;;;19.90;76.50;;;;;;5133893;28;20027;-82
2023/05/12 11:37:05;;;;;;;4.32;3.40;;;20.00;79.10;;;;;;5134915;28;20023;-82
2023/05/12 11:39:31;;;;;;;5.78;3.63;;;20.10;79.60;;;;;;5134897;28;20024;-81
2023/05/12 11:42:08;;;;;;;4.28;3.20;;;20.20;80.20;;;;;;5134819;28;20022;-82
2023/05/12 11:44:34;;;;;;;4.75;2.85;;;20.30;79.10;;;;;;5133714;28;20066;-81
2023/05/12 11:47:10;;;;;;;4.20;3.40;;;20.40;80.20;;;;;;5099868;28;20030;-81
2023/05/12 11:49:50;;;;;;;4.68;3.60;;;20.60;79.70;;;;;;5133762;28;20038;-81
2023/05/12 11:52:18;;;;;;;4.22;3.20;;;20.60;79.40;;;;;;5133693;28;20032;-81
2023/05/12 11:54:51;;;;;;;3.22;2.70;;;20.60;78.30;;;;;;5116926;28;20100;-81
2023/05/12 11:57:27;;;;;;;3.80;2.80;;;20.60;80.40;;;;;;5134729;28;20066;-81
2023/05/12 12:00:00;;;;;;;4.05;2.58;;;20.70;79.40;;;;;;5133525;28;20031;-81
2023/05/12 12:02:27;;;;;;;3.42;2.90;;;20.90;79.20;;;;;;5134491;28;20023;-81
2023/05/12 12:04:52;;;;;;;4.30;3.00;;;20.80;76.90;;;;;;5134337;28;20042;-81
2023/05/12 12:07:32;;;;;;;3.80;2.90;;;20.80;77.80;;;;;;5133156;28;20068;-81
2023/05/12 12:10:14;;;;;;;5.25;3.10;;;20.80;77.00;;;;;;5117024;28;20069;-81
2023/05/12 12:12:43;;;;;;;4.57;3.13;;;20.90;78.00;;;;;;5134376;28;20084;-81
2023/05/12 12:15:10;;;;;;;3.97;2.72;;;20.80;78.60;;;;;;5133320;28;20102;-81
2023/05/12 12:17:36;;;;;;;4.07;3.22;;;20.90;77.40;;;;;;5116315;28;20034;-81
2023/05/12 12:20:02;;;;;;;3.88;2.90;;;20.90;77.30;;;;;;5134170;28;20051;-81
2023/05/12 12:22:32;;;;;;;4.90;3.05;;;20.90;77.60;;;;;;5134159;28;20429;-81
2023/05/12 12:24:58;;;;;;;4.93;2.95;;;20.80;77.80;;;;;;5134078;28;20030;-81
2023/05/12 12:27:24;;;;;;;5.78;2.70;;;20.90;76.70;;;;;;5133216;28;20020;-81
2023/05/12 12:29:50;;;;;;;5.03;3.30;;;20.80;76.60;;;;;;5134002;28;20035;-81
2023/05/12 12:32:15;;;;;;;4.72;3.20;;;20.80;75.50;;;;;;5133267;28;20031;-81
2023/05/12 12:34:41;;;;;;;3.40;2.72;;;20.80;77.30;;;;;;5132984;28;20027;-81
2023/05/12 12:37:06;;;;;;;3.47;2.85;;;20.90;78.00;;;;;;5133000;28;20019;-81
2023/05/12 12:39:32;;;;;;;4.00;2.90;;;20.90;77.90;;;;;;5132350;28;20043;-81